Time;durP1;ratioP1;P1;durP2;ratioP2;P2;SDS_P1;SDS_P2;PMS_P1;PMS_P2;Temp;Humidity;BMP_temperature;BMP_pressure;BME280_temperature;BME280_humidity;BME280_pressure;Samples;Min_cycle;Max_cycle;Signal;HPM_P1;HPM_P2
2021/04/23 00:01:02;;;;;;;30.57;11.50;;;;;;;2.00;66.82;98787.98;115059;1202;23813;-79
2021/04/23 00:03:47;;;;;;;28.20;11.17;;;;;;;1.99;66.84;98783.63;115030;1202;23145;-79
2021/04/23 00:06:25;;;;;;;30.53;11.17;;;;;;;2.02;66.92;98790.47;115186;1200;26319;-79
2021/04/23 00:08:54;;;;;;;32.10;11.50;;;;;;;2.01;66.77;98783.44;115297;1200;23118;-79
2021/04/23 00:11:33;;;;;;;27.77;10.70;;;;;;;2.02;66.75;98785.95;115062;1202;23176;-79
2021/04/23 00:14:01;;;;;;;33.00;11.88;;;;;;;2.02;66.71;98783.27;114862;1202;24919;-79
2021/04/23 00:16:28;;;;;;;29.10;11.25;;;;;;;2.06;66.51;98787.25;115161;1200;23220;-79
2021/04/23 00:18:55;;;;;;;29.70;12.00;;;;;;;2.09;66.46;98781.52;115163;1199;23370;-79
2021/04/23 00:21:23;;;;;;;33.50;11.70;;;;;;;2.10;66.53;98776.97;115227;1200;24699;-79
2021/04/23 00:23:52;;;;;;;33.47;11.50;;;;;;;2.13;66.14;98773.09;114923;1202;23208;-80
2021/04/23 00:26:19;;;;;;;27.95;10.13;;;;;;;2.12;66.37;98779.48;115109;1200;23999;-80
2021/04/23 00:28:47;;;;;;;25.80;10.75;;;;;;;2.12;66.32;98782.16;115033;1200;23148;-80
2021/04/23 00:31:14;;;;;;;30.10;10.80;;;;;;;2.09;66.63;98780.69;115130;1200;23158;-80
2021/04/23 00:33:41;;;;;;;33.10;11.83;;;;;;;2.08;66.76;98782.52;115091;1202;23125;-80
2021/04/23 00:36:09;;;;;;;34.63;12.23;;;;;;;2.09;66.99;98786.06;115163;1202;23176;-80
2021/04/23 00:38:38;;;;;;;38.97;13.30;;;;;;;2.09;66.76;98788.75;115075;1198;23122;-80
2021/04/23 00:41:14;;;;;;;32.07;11.63;;;;;;;2.08;67.28;98787.89;115076;1200;23275;-80
2021/04/23 00:44:01;;;;;;;32.43;12.27;;;;;;;2.07;67.30;98788.07;115118;1202;23888;-80
2021/04/23 00:46:31;;;;;;;36.57;12.30;;;;;;;2.02;67.18;98788.64;115229;1199;23117;-80
2021/04/23 00:48:58;;;;;;;;;;;;;;;1.96;67.26;98789.34;115168;1206;23217;-80
2021/04/23 00:51:45;;;;;;;32.40;12.17;;;;;;;1.88;67.48;98792.13;115093;1202;21739;-79
2021/04/23 00:54:15;;;;;;;36.28;12.65;;;;;;;1.81;67.13;98786.63;115083;1200;23292;-80
2021/04/23 00:56:43;;;;;;;31.00;13.50;;;;;;;1.78;67.69;98778.11;115116;1203;26166;-80
2021/04/23 00:59:12;;;;;;;36.60;12.60;;;;;;;1.76;67.60;98783.65;115094;1202;23118;-80
2021/04/23 01:01:47;;;;;;;32.35;12.48;;;;;;;1.76;67.67;98778.28;115177;1202;23237;-80
2021/04/23 01:04:17;;;;;;;39.33;13.20;;;;;;;1.76;67.83;98790.88;115073;1200;23108;-80
2021/04/23 01:06:45;;;;;;;31.37;13.07;;;;;;;1.75;68.08;98789.20;115135;1199;26143;-80
2021/04/23 01:09:18;;;;;;;33.93;13.03;;;;;;;1.70;68.03;98793.27;115362;1199;23110;-80
2021/04/23 01:11:47;;;;;;;32.70;13.00;;;;;;;1.63;68.34;98795.00;115149;1199;23261;-80
2021/04/23 01:14:15;;;;;;;37.15;14.50;;;;;;;1.57;68.37;98792.19;115177;1202;23179;-80
2021/04/23 01:16:42;;;;;;;35.03;13.83;;;;;;;1.54;68.82;98796.08;115382;1199;27326;-80
2021/04/23 01:19:11;;;;;;;34.80;13.80;;;;;;;1.51;68.66;98796.43;115032;1200;23144;-80
2021/04/23 01:21:39;;;;;;;31.33;13.35;;;;;;;1.46;69.27;98796.95;115102;1200;24771;-80
2021/04/23 01:24:08;;;;;;;36.47;14.10;;;;;;;1.45;69.11;98797.13;115126;1200;23315;-80
2021/04/23 01:26:40;;;;;;;31.40;11.93;;;;;;;1.43;69.91;98799.16;115154;1200;26178;-80
2021/04/23 01:29:09;;;;;;;34.73;13.63;;;;;;;1.37;69.42;98799.88;115085;1200;23220;-80
2021/04/23 01:31:40;;;;;;;37.97;14.93;;;;;;;1.33;69.97;98797.55;115269;1200;27199;-80
2021/04/23 01:34:22;;;;;;;38.27;13.07;;;;;;;1.32;69.84;98795.86;115093;1202;23209;-80
2021/04/23 01:36:51;;;;;;;32.50;13.37;;;;;;;1.30;70.33;98797.89;115175;1199;27339;-80
2021/04/23 01:39:21;;;;;;;34.33;13.13;;;;;;;1.31;70.48;98799.58;115212;1200;23101;-81
2021/04/23 01:41:52;;;;;;;33.57;13.73;;;;;;;1.33;70.43;98797.55;115197;1199;23124;-80
2021/04/23 01:44:20;;;;;;;34.50;13.30;;;;;;;1.33;70.69;98805.59;115072;1199;23135;-80
2021/04/23 01:46:47;;;;;;;31.90;11.70;;;;;;;1.35;70.82;98805.42;114915;1200;23100;-80
2021/04/23 01:49:17;;;;;;;32.00;11.87;;;;;;;1.31;71.10;98807.63;114744;1202;23131;-80
2021/04/23 01:51:50;;;;;;;29.27;12.77;;;;;;;1.32;71.51;98803.91;114780;1202;26188;-80
2021/04/23 01:54:19;;;;;;;27.85;13.20;;;;;;;1.33;71.66;98802.91;115017;1202;25987;-80
2021/04/23 01:56:47;;;;;;;32.55;10.98;;;;;;;1.35;71.72;98804.56;114851;1200;23340;-79
2021/04/23 01:59:15;;;;;;;29.95;12.60;;;;;;;1.33;71.56;98807.45;115074;1202;23247;-79
2021/04/23 02:01:43;;;;;;;31.93;13.10;;;;;;;1.34;72.32;98803.73;114872;1200;26277;-79
2021/04/23 02:04:12;;;;;;;36.80;13.45;;;;;;;1.35;72.14;98809.92;115162;1202;23115;-79
2021/04/23 02:06:40;;;;;;;35.45;13.35;;;;;;;1.31;72.55;98817.50;114842;1200;23108;-79
2021/04/23 02:09:09;;;;;;;39.73;14.27;;;;;;;1.31;72.79;98812.98;114870;1202;26038;-79
2021/04/23 02:11:40;;;;;;;31.10;13.08;;;;;;;1.31;72.60;98817.50;114864;1199;24725;-79
2021/04/23 02:14:07;;;;;;;31.00;12.37;;;;;;;1.30;73.14;98819.35;114819;1202;23169;-79
2021/04/23 02:16:35;;;;;;;39.17;14.33;;;;;;;1.28;73.39;98817.88;114814;1199;23115;-80
2021/04/23 02:19:04;;;;;;;30.83;11.67;;;;;;;1.26;73.27;98814.53;114819;1202;23170;-79
2021/04/23 02:21:32;;;;;;;31.57;12.57;;;;;;;1.23;72.82;98812.20;114872;1202;23095;-80
2021/04/23 02:23:59;;;;;;;34.05;13.40;;;;;;;1.22;72.82;98807.83;114781;1202;23183;-80
2021/04/23 02:26:26;;;;;;;35.75;14.25;;;;;;;1.22;72.92;98813.20;115089;1202;23152;-80
2021/04/23 02:28:53;;;;;;;25.43;11.50;;;;;;;1.24;73.65;98816.53;114867;1202;23176;-80
2021/04/23 02:31:24;;;;;;;37.60;15.23;;;;;;;1.23;73.04;98813.02;115091;1202;24578;-80
2021/04/23 02:33:54;;;;;;;34.70;13.97;;;;;;;1.24;73.19;98812.02;114813;1202;26143;-80
2021/04/23 02:36:21;;;;;;;34.50;14.20;;;;;;;1.28;73.57;98816.02;115075;1199;26493;-80
2021/04/23 02:38:48;;;;;;;33.20;13.65;;;;;;;1.32;72.82;98819.18;114750;1200;23223;-79
2021/04/23 02:41:17;;;;;;;35.25;13.65;;;;;;;1.32;73.48;98816.50;114744;1202;23131;-79
2021/04/23 02:43:48;;;;;;;35.40;15.65;;;;;;;1.29;73.79;98825.75;114990;1202;24544;-79
2021/04/23 02:46:16;;;;;;;40.05;15.95;;;;;;;1.25;73.11;98816.36;114731;1200;25928;-79
2021/04/23 02:48:45;;;;;;;41.05;15.15;;;;;;;1.24;73.37;98821.90;114828;1199;23108;-79
2021/04/23 02:51:19;;;;;;;33.10;15.10;;;;;;;1.23;73.65;98823.75;114807;1200;23128;-79
2021/04/23 02:53:47;;;;;;;37.00;15.15;;;;;;;1.24;73.76;98828.13;114769;1199;23129;-79
2021/04/23 02:56:15;;;;;;;35.75;14.50;;;;;;;1.24;73.61;98827.27;114814;1202;23111;-79
2021/04/23 02:58:43;;;;;;;37.30;16.08;;;;;;;1.21;73.43;98831.15;114814;1200;23102;-79
2021/04/23 03:01:21;;;;;;;32.10;15.50;;;;;;;1.19;74.35;98821.59;114789;1202;23177;-80
2021/04/23 03:03:48;;;;;;;31.47;14.57;;;;;;;1.22;74.35;98829.30;114958;1200;26060;-80
2021/04/23 03:06:16;;;;;;;35.55;15.15;;;;;;;1.22;74.29;98830.15;114821;1202;23155;-80
2021/04/23 03:08:44;;;;;;;35.70;15.07;;;;;;;1.23;74.32;98831.80;114798;1200;23122;-80
2021/04/23 03:11:20;;;;;;;29.87;14.53;;;;;;;1.23;74.63;98834.48;114795;1200;23173;-80
2021/04/23 03:13:51;;;;;;;35.57;16.07;;;;;;;1.23;74.80;98837.17;115089;1202;23104;-80
2021/04/23 03:16:18;;;;;;;35.30;14.70;;;;;;;1.25;74.50;98837.82;114781;1200;23136;-79
2021/04/23 03:18:46;;;;;;;32.17;15.10;;;;;;;1.24;74.92;98828.13;114777;1202;24877;-79
2021/04/23 03:21:17;;;;;;;32.40;15.50;;;;;;;1.24;75.00;98838.86;114780;1202;23165;-79
2021/04/23 03:23:45;;;;;;;36.03;17.73;;;;;;;1.23;75.50;98833.66;114946;1202;27199;-79
2021/04/23 03:26:14;;;;;;;41.13;18.63;;;;;;;1.23;75.71;98842.53;115098;1200;23240;-81
2021/04/23 03:28:42;;;;;;;;;;;;;;;1.23;75.27;98839.85;114933;1205;23211;-79
2021/04/23 03:31:10;;;;;;;40.77;17.27;;;;;;;1.23;75.43;98844.39;114912;1202;21776;-79
2021/04/23 03:33:38;;;;;;;39.60;19.45;;;;;;;1.24;75.52;98838.86;114868;1200;23115;-79
2021/04/23 03:36:09;;;;;;;40.77;21.23;;;;;;;1.23;76.03;98842.53;114817;1202;26186;-79
2021/04/23 03:38:39;;;;;;;40.85;21.80;;;;;;;1.22;75.89;98848.07;115152;1202;23159;-79
2021/04/23 03:41:10;;;;;;;41.03;17.57;;;;;;;1.22;76.19;98848.07;115048;1202;23273;-79
2021/04/23 03:43:38;;;;;;;40.50;18.90;;;;;;;1.20;76.74;98845.56;114798;1202;23134;-79
2021/04/23 03:46:06;;;;;;;46.70;22.00;;;;;;;1.21;76.25;98854.47;115227;1200;26216;-79
2021/04/23 03:48:34;;;;;;;45.00;22.00;;;;;;;1.20;76.12;98852.78;114972;1199;25122;-79
2021/04/23 03:51:04;;;;;;;51.00;22.10;;;;;;;1.21;76.39;98851.78;114845;1202;23141;-79
2021/04/23 03:53:32;;;;;;;42.75;19.40;;;;;;;1.22;76.84;98856.98;114724;1200;23115;-79
2021/04/23 03:55:59;;;;;;;45.00;21.53;;;;;;;1.23;76.92;98860.48;114738;1199;27195;-79
2021/04/23 03:58:27;;;;;;;44.27;20.90;;;;;;;1.20;77.02;98856.28;114802;1199;23115;-79
2021/04/23 04:01:00;;;;;;;41.20;22.33;;;;;;;1.20;77.21;98858.14;114884;1199;23112;-79
2021/04/23 04:03:29;;;;;;;47.53;22.60;;;;;;;1.21;76.80;98871.39;115124;1202;24880;-79
2021/04/23 04:05:57;;;;;;;44.23;20.87;;;;;;;1.23;77.09;98863.17;115118;1202;24784;-79
2021/04/23 04:08:24;;;;;;;41.50;19.65;;;;;;;1.25;77.29;98870.02;114758;1200;23119;-79
2021/04/23 04:10:52;;;;;;;39.50;20.25;;;;;;;1.26;77.55;98870.88;114722;1202;24904;-79
2021/04/23 04:13:19;;;;;;;50.75;21.50;;;;;;;1.27;77.32;98870.67;115098;1200;23121;-78
2021/04/23 04:15:47;;;;;;;43.90;22.07;;;;;;;1.26;77.77;98863.66;115054;1201;23169;-79
2021/04/23 04:18:14;;;;;;;42.50;23.10;;;;;;;1.27;77.26;98867.16;115034;1202;23122;-79
2021/04/23 04:20:45;;;;;;;39.47;20.33;;;;;;;1.30;77.30;98873.02;115026;1200;26902;-79
2021/04/23 04:23:15;;;;;;;41.85;21.65;;;;;;;1.33;77.54;98872.67;114711;1202;23193;-78
2021/04/23 04:25:45;;;;;;;37.05;18.10;;;;;;;1.36;77.71;98871.47;114684;1202;23108;-78
2021/04/23 04:28:13;;;;;;;42.20;21.15;;;;;;;1.38;77.49;98871.30;114761;1200;23106;-78
2021/04/23 04:30:41;;;;;;;51.60;25.43;;;;;;;1.39;77.24;98872.98;114787;1199;23311;-78
2021/04/23 04:33:10;;;;;;;46.60;23.45;;;;;;;1.40;77.95;98877.32;114649;1202;23124;-78
2021/04/23 04:35:37;;;;;;;40.27;22.47;;;;;;;1.41;77.35;98877.15;114734;1202;25961;-78
2021/04/23 04:38:09;;;;;;;44.13;22.13;;;;;;;1.46;78.05;98880.14;114614;1202;23179;-78
2021/04/23 04:40:38;;;;;;;46.77;23.07;;;;;;;1.48;77.70;98880.80;115124;1202;26699;-78
2021/04/23 04:43:08;;;;;;;47.30;23.78;;;;;;;1.50;78.11;98886.82;114752;1202;23318;-79
2021/04/23 04:45:36;;;;;;;48.50;26.65;;;;;;;1.55;78.04;98890.84;115059;1202;23144;-79
2021/04/23 04:48:03;;;;;;;46.57;22.87;;;;;;;1.61;77.86;98898.18;114816;1202;24724;-79
2021/04/23 04:50:50;;;;;;;38.40;19.77;;;;;;;1.65;77.96;98904.89;115083;1202;23119;-79
2021/04/23 04:53:18;;;;;;;40.17;18.80;;;;;;;1.68;78.25;98908.05;114784;1200;23224;-79
2021/04/23 04:55:48;;;;;;;38.07;21.13;;;;;;;1.72;78.49;98908.53;114808;1202;24865;-79
2021/04/23 04:58:16;;;;;;;;;;;;;;;1.73;78.71;98904.82;115182;1205;23208;-79
2021/04/23 05:00:44;;;;;;;37.07;21.73;;;;;;;1.76;78.86;98907.16;114960;1200;21603;-79
2021/04/23 05:03:12;;;;;;;41.30;21.23;;;;;;;1.81;79.30;98909.33;115257;1202;24734;-79
2021/04/23 05:05:41;;;;;;;36.47;21.03;;;;;;;1.87;79.40;98916.66;115072;1201;23368;-79
2021/04/23 05:08:08;;;;;;;34.20;17.95;;;;;;;1.93;78.94;98905.22;114830;1200;23111;-79
2021/04/23 05:10:35;;;;;;;41.07;18.23;;;;;;;2.00;78.90;98910.69;114834;1202;23269;-79
2021/04/23 05:13:03;;;;;;;35.63;18.33;;;;;;;2.05;79.16;98911.84;115348;1202;23847;-79
2021/04/23 05:15:29;;;;;;;40.73;17.43;;;;;;;2.12;79.09;98911.12;115156;1202;23173;-79
2021/04/23 05:17:57;;;;;;;38.57;19.60;;;;;;;2.15;78.94;98916.97;115127;1198;23646;-79
2021/04/23 05:20:24;;;;;;;41.27;21.47;;;;;;;2.21;79.13;98913.58;114839;1200;27473;-79
2021/04/23 05:22:51;;;;;;;36.20;18.90;;;;;;;2.28;79.15;98917.21;114834;1199;24733;-79
2021/04/23 05:25:21;;;;;;;35.20;17.70;;;;;;;2.39;78.85;98915.95;115204;1202;23111;-79
2021/04/23 05:27:49;;;;;;;31.20;16.50;;;;;;;2.49;78.98;98920.23;114957;1200;23115;-79
2021/04/23 05:30:20;;;;;;;30.70;14.97;;;;;;;2.60;79.25;98925.16;115102;1202;23121;-79
2021/04/23 05:32:48;;;;;;;27.30;14.23;;;;;;;2.69;79.31;98925.92;114966;1199;23477;-78
2021/04/23 05:35:17;;;;;;;35.60;18.13;;;;;;;2.76;79.05;98933.09;115267;1202;23121;-79
2021/04/23 05:37:45;;;;;;;38.15;17.25;;;;;;;2.89;78.79;98932.45;115027;1202;27310;-79
2021/04/23 05:40:15;;;;;;;33.20;16.30;;;;;;;3.02;78.58;98929.11;114886;1200;26147;-79
2021/04/23 05:42:42;;;;;;;25.90;15.00;;;;;;;3.11;78.65;98928.00;114906;1200;23136;-79
2021/04/23 05:45:10;;;;;;;34.35;16.00;;;;;;;3.21;78.63;98933.12;115174;1202;25954;-79
2021/04/23 05:47:39;;;;;;;27.43;13.57;;;;;;;3.27;78.41;98923.45;115078;1202;26048;-79
2021/04/23 05:50:09;;;;;;;26.30;14.93;;;;;;;3.33;78.38;98925.39;114922;1202;23249;-79
2021/04/23 05:52:36;;;;;;;27.90;14.83;;;;;;;3.40;78.21;98924.47;115102;1198;23127;-79
2021/04/23 05:55:08;;;;;;;30.90;15.65;;;;;;;3.48;77.85;98928.91;115357;1202;25987;-79
2021/04/23 05:57:35;;;;;;;27.80;13.80;;;;;;;3.59;77.48;98925.76;115129;1200;23103;-80
2021/04/23 06:00:06;;;;;;;31.93;14.87;;;;;;;3.69;77.56;98943.47;115046;1200;27205;-80
2021/04/23 06:02:39;;;;;;;24.10;14.80;;;;;;;3.72;78.02;98937.69;115148;1200;23129;-80
2021/04/23 06:05:07;;;;;;;24.90;12.67;;;;;;;3.74;77.17;98932.97;115199;1202;23128;-80
2021/04/23 06:07:34;;;;;;;27.37;13.50;;;;;;;3.76;77.63;98929.05;115344;1200;23769;-80
2021/04/23 06:10:01;;;;;;;31.45;17.10;;;;;;;3.76;77.13;98930.91;115108;1200;23215;-80
2021/04/23 06:12:29;;;;;;;34.45;17.00;;;;;;;3.82;77.00;98932.02;115087;1200;23132;-80
2021/04/23 06:14:56;;;;;;;31.20;16.25;;;;;;;3.87;77.03;98926.89;115087;1202;23111;-80
2021/04/23 06:17:23;;;;;;;39.87;18.73;;;;;;;3.90;77.43;98934.60;115077;1199;23129;-80
2021/04/23 06:19:51;;;;;;;28.90;17.60;;;;;;;3.90;76.83;98932.73;115106;1200;23173;-80
2021/04/23 06:22:19;;;;;;;22.35;13.40;;;;;;;3.90;77.28;98932.73;115316;1200;23266;-80
2021/04/23 06:24:46;;;;;;;35.45;18.25;;;;;;;3.90;77.08;98935.42;115207;1199;23326;-80
2021/04/23 06:27:13;;;;;;;33.50;17.30;;;;;;;3.94;76.88;98936.70;115120;1202;23120;-80
2021/04/23 06:29:40;;;;;;;34.13;16.77;;;;;;;4.02;77.16;98937.61;115156;1199;23115;-80
2021/04/23 06:32:07;;;;;;;30.40;17.00;;;;;;;4.12;77.26;98944.36;115076;1202;23158;-80
2021/04/23 06:34:34;;;;;;;26.60;15.27;;;;;;;4.26;77.16;98936.42;115045;1199;23117;-80
2021/04/23 06:37:02;;;;;;;32.10;14.07;;;;;;;4.41;76.75;98937.20;115138;1199;23122;-80
2021/04/23 06:39:29;;;;;;;28.37;15.33;;;;;;;4.55;77.07;98924.64;115056;1199;23107;-80
2021/04/23 06:41:55;;;;;;;35.97;17.57;;;;;;;4.71;77.64;98937.02;115126;1202;23173;-80
2021/04/23 06:44:22;;;;;;;26.07;15.00;;;;;;;4.88;76.76;98924.90;115281;1200;23125;-80
2021/04/23 06:46:50;;;;;;;23.77;11.27;;;;;;;5.06;76.66;98931.67;115235;1200;23243;-80
2021/04/23 06:49:18;;;;;;;23.90;13.27;;;;;;;5.21;75.47;98934.27;115060;1199;26106;-80
2021/04/23 06:51:45;;;;;;;27.00;14.30;;;;;;;5.36;76.03;98929.56;115078;1202;24587;-80
2021/04/23 06:54:12;;;;;;;21.30;12.60;;;;;;;5.55;75.69;98937.98;115095;1202;23118;-80
2021/04/23 06:56:39;;;;;;;25.93;11.67;;;;;;;5.70;74.99;98934.10;115141;1200;23165;-80
2021/04/23 06:59:06;;;;;;;17.15;8.60;;;;;;;5.82;73.50;98950.55;115012;1199;24752;-80
2021/04/23 07:01:33;;;;;;;22.00;10.90;;;;;;;5.87;73.08;98939.14;115028;1200;23401;-80
2021/04/23 07:04:00;;;;;;;23.03;10.97;;;;;;;5.92;72.68;98949.36;115114;1199;27272;-80
2021/04/23 07:06:26;;;;;;;25.20;10.80;;;;;;;5.92;72.06;98950.19;115024;1202;23210;-80
2021/04/23 07:08:53;;;;;;;23.20;13.20;;;;;;;5.90;72.41;98952.27;115184;1202;23554;-80
2021/04/23 07:11:21;;;;;;;21.73;12.17;;;;;;;5.86;72.33;98954.53;115205;1199;26182;-80
2021/04/23 07:13:48;;;;;;;26.65;11.80;;;;;;;5.84;71.79;98955.75;115118;1202;23110;-80
2021/04/23 07:16:15;;;;;;;25.05;14.45;;;;;;;5.81;71.70;98953.48;115168;1202;23122;-80
2021/04/23 07:18:42;;;;;;;25.40;13.50;;;;;;;5.82;72.06;98953.25;115144;1200;23180;-80
2021/04/23 07:21:09;;;;;;;26.90;13.73;;;;;;;5.86;71.82;98950.98;115092;1202;23111;-80
2021/04/23 07:23:36;;;;;;;26.85;13.50;;;;;;;5.96;71.79;98951.47;115095;1202;23630;-80
2021/04/23 07:26:03;;;;;;;22.43;14.30;;;;;;;6.13;71.56;98959.23;115075;1199;23132;-80
2021/04/23 07:28:31;;;;;;;22.33;10.93;;;;;;;6.27;71.77;98950.11;115083;1202;23111;-80
2021/04/23 07:30:58;;;;;;;25.00;13.00;;;;;;;6.44;71.67;98953.24;115267;1200;23132;-80
2021/04/23 07:33:25;;;;;;;23.80;14.35;;;;;;;6.64;71.01;98948.70;115135;1202;26178;-80
2021/04/23 07:35:52;;;;;;;28.75;14.55;;;;;;;6.83;70.46;98947.05;115135;1199;27326;-80
2021/04/23 07:38:20;;;;;;;33.40;15.20;;;;;;;6.98;70.71;98948.70;115071;1202;23107;-80
2021/04/23 07:40:47;;;;;;;23.40;12.77;;;;;;;7.08;69.16;98953.67;115280;1200;24725;-80
2021/04/23 07:43:14;;;;;;;27.25;12.30;;;;;;;7.11;68.86;98955.97;115124;1200;23937;-80
2021/04/23 07:45:41;;;;;;;26.80;12.85;;;;;;;7.17;67.47;98957.81;115060;1200;23113;-80
2021/04/23 07:48:08;;;;;;;30.80;14.70;;;;;;;7.22;67.09;98949.89;115178;1202;23558;-80
2021/04/23 07:50:35;;;;;;;21.60;11.10;;;;;;;7.29;66.41;98950.72;115245;1200;26181;-80
2021/04/23 07:53:02;;;;;;;16.60;9.30;;;;;;;7.34;65.28;98958.22;115077;1202;23198;-81
2021/04/23 07:55:30;;;;;;;25.60;11.90;;;;;;;7.40;65.94;98965.48;115369;1199;24578;-80
2021/04/23 07:57:58;;;;;;;19.35;10.60;;;;;;;7.49;65.83;98964.23;115501;1200;23249;-80
2021/04/23 08:00:26;;;;;;;19.27;10.77;;;;;;;7.44;66.00;98955.05;115017;1200;26592;-80
2021/04/23 08:02:54;;;;;;;24.37;12.93;;;;;;;7.44;66.89;98968.60;114937;1202;23249;-80
2021/04/23 08:05:22;;;;;;;22.13;12.83;;;;;;;7.41;65.81;98962.56;114785;1200;23194;-80
2021/04/23 08:07:49;;;;;;;24.97;13.70;;;;;;;7.42;65.17;98963.42;114845;1202;23144;-80
2021/04/23 08:10:19;;;;;;;22.20;12.00;;;;;;;7.43;64.40;98966.95;114822;1202;24320;-80
2021/04/23 08:12:48;;;;;;;22.10;10.30;;;;;;;7.39;63.72;98969.26;115195;1200;23141;-80
2021/04/23 08:15:16;;;;;;;16.67;10.03;;;;;;;7.37;64.90;98969.47;115259;1200;24772;-80
2021/04/23 08:17:45;;;;;;;;;;;;;;;7.40;65.12;98970.91;114847;1205;26130;-80
2021/04/23 08:20:13;;;;;;;26.35;13.30;;;;;;;7.41;64.75;98972.58;114891;1202;21679;-80
2021/04/23 08:22:47;;;;;;;25.70;13.90;;;;;;;7.39;65.55;98978.21;114937;1202;26255;-80
2021/04/23 08:25:17;;;;;;;28.50;14.85;;;;;;;7.43;65.94;98978.62;115129;1202;23111;-80
2021/04/23 08:27:44;;;;;;;;;;;;;;;7.43;63.62;98972.38;114934;1205;27373;-80
2021/04/23 08:30:12;;;;;;;18.35;10.80;;;;;;;7.43;65.14;98973.20;115251;1200;21614;-80
2021/04/23 08:32:39;;;;;;;22.15;11.85;;;;;;;7.59;66.11;98961.89;115633;1202;23111;-80
2021/04/23 08:35:08;;;;;;;;;;;;;;;7.82;64.69;98965.17;115503;1206;23242;-80
2021/04/23 08:37:39;;;;;;;19.53;10.40;;;;;;;8.08;63.34;98961.52;115245;1199;21724;-80
2021/04/23 08:40:10;;;;;;;23.15;11.85;;;;;;;8.34;63.44;98955.94;115477;1198;23124;-80
2021/04/23 08:42:41;;;;;;;24.00;11.60;;;;;;;8.50;62.61;98951.89;115470;1202;23112;-80
2021/04/23 08:45:16;;;;;;;22.25;10.95;;;;;;;8.60;62.38;98958.72;115663;1202;23144;-81
2021/04/23 08:47:44;;;;;;;15.95;9.50;;;;;;;8.57;61.39;98945.58;115266;1199;23282;-78
2021/04/23 08:50:13;;;;;;;15.67;10.57;;;;;;;8.78;61.46;98957.95;115176;1202;25921;-80
2021/04/23 08:52:45;;;;;;;19.35;10.15;;;;;;;8.96;60.24;98968.04;115419;1199;24733;-80
2021/04/23 08:55:16;;;;;;;15.93;9.87;;;;;;;8.93;59.17;98966.61;115236;1202;23187;-78
2021/04/23 08:57:43;;;;;;;22.40;11.20;;;;;;;8.80;59.64;98964.84;114985;1198;23168;-78
2021/04/23 09:00:11;;;;;;;16.93;9.77;;;;;;;8.62;57.62;98971.00;115155;1199;23116;-78
2021/04/23 09:02:41;;;;;;;15.65;9.00;;;;;;;8.38;57.19;98979.93;114981;1200;23163;-78
2021/04/23 09:05:12;;;;;;;17.97;8.80;;;;;;;8.12;57.69;98977.12;115095;1203;23245;-78
2021/04/23 09:07:40;;;;;;;10.65;6.10;;;;;;;7.80;57.57;98973.52;114978;1202;24620;-80
2021/04/23 09:10:12;;;;;;;12.40;7.23;;;;;;;7.46;59.50;98974.67;115709;1200;23136;-80
2021/04/23 09:12:41;;;;;;;16.95;8.45;;;;;;;7.29;61.46;98971.56;115619;1198;23192;-80
2021/04/23 09:15:24;;;;;;;14.93;9.50;;;;;;;7.12;61.74;98973.86;115049;1199;23132;-78
2021/04/23 09:18:15;;;;;;;20.83;11.20;;;;;;;7.08;63.24;98964.50;115119;1199;23133;-77
2021/04/23 09:20:47;;;;;;;16.25;9.70;;;;;;;7.27;62.97;98951.98;115000;1200;24772;-78
2021/04/23 09:23:21;;;;;;;14.75;9.65;;;;;;;7.54;62.39;98942.75;114987;1203;23117;-78
2021/04/23 09:25:57;;;;;;;19.83;11.63;;;;;;;7.57;61.90;98931.47;114886;1201;23159;-78
2021/04/23 09:28:43;;;;;;;16.20;9.50;;;;;;;7.59;62.97;98942.92;115034;1200;23602;-79
2021/04/23 09:31:29;;;;;;;22.85;11.40;;;;;;;7.72;62.70;98955.62;114923;1200;23151;-79
2021/04/23 09:33:58;;;;;;;18.53;9.73;;;;;;;7.87;61.80;98938.24;114981;1203;23122;-78
2021/04/23 09:36:31;;;;;;;16.90;10.00;;;;;;;8.09;61.18;98934.17;115169;1202;23120;-79
2021/04/23 09:39:28;;;;;;;17.10;8.77;;;;;;;8.30;61.22;98935.69;115115;1199;23121;-79
2021/04/23 09:42:10;;;;;;;13.45;8.65;;;;;;;8.42;59.88;98933.16;115038;1200;23773;-79
2021/04/23 09:44:49;;;;;;;14.00;8.50;;;;;;;8.39;58.28;98940.88;115331;1199;23188;-79
2021/04/23 09:47:22;;;;;;;14.43;7.60;;;;;;;8.23;57.34;98934.91;114923;1202;23124;-79
2021/04/23 09:49:55;;;;;;;14.30;7.20;;;;;;;8.12;57.77;98947.28;114937;1203;27268;-79
2021/04/23 09:52:23;;;;;;;14.50;8.30;;;;;;;8.12;60.97;98944.56;115048;1200;26079;-79
2021/04/23 09:54:55;;;;;;;13.70;8.15;;;;;;;8.24;61.62;98941.19;114896;1200;23117;-80
2021/04/23 09:57:30;;;;;;;11.55;7.95;;;;;;;8.42;63.28;98927.72;114759;1202;24295;-80
2021/04/23 09:59:59;;;;;;;13.77;7.30;;;;;;;8.66;62.19;98930.70;114792;1200;23121;-80
2021/04/23 10:02:28;;;;;;;13.50;7.50;;;;;;;8.90;59.20;98929.02;115157;1203;23199;-80
2021/04/23 10:04:57;;;;;;;11.95;8.08;;;;;;;9.18;59.77;98914.97;114893;1202;26156;-80
2021/04/23 10:07:29;;;;;;;11.85;7.98;;;;;;;9.40;57.94;98906.37;114774;1199;24702;-80
2021/04/23 10:10:05;;;;;;;12.47;7.03;;;;;;;9.36;56.79;98913.32;114729;1200;23140;-80
2021/04/23 10:12:53;;;;;;;13.00;8.40;;;;;;;9.22;55.24;98908.02;114809;1200;23726;-80
2021/04/23 10:15:23;;;;;;;14.10;7.40;;;;;;;9.06;57.67;98927.63;114831;1202;23138;-79
2021/04/23 10:18:01;;;;;;;12.87;7.33;;;;;;;8.73;57.04;98945.06;114765;1199;23147;-79
2021/04/23 10:20:30;;;;;;;10.77;6.23;;;;;;;8.02;59.46;98937.95;114777;1200;27332;-80
2021/04/23 10:23:00;;;;;;;9.48;5.25;;;;;;;7.44;60.73;98942.36;114783;1202;24796;-80
2021/04/23 10:25:28;;;;;;;8.05;5.33;;;;;;;6.96;63.36;98956.20;114784;1202;23144;-79
2021/04/23 10:27:56;;;;;;;10.93;6.50;;;;;;;6.58;65.44;98954.92;115110;1200;26625;-80
2021/04/23 10:30:32;;;;;;;6.83;5.27;;;;;;;6.20;68.30;98963.61;115401;1203;23111;-81
2021/04/23 10:33:06;;;;;;;4.40;3.85;;;;;;;5.91;70.24;98964.72;115318;1199;23254;-81
2021/04/23 10:35:35;;;;;;;7.90;4.50;;;;;;;5.77;72.04;98961.16;114751;1203;23122;-81
2021/04/23 10:38:11;;;;;;;10.50;7.35;;;;;;;5.77;71.35;98952.20;114789;1200;23112;-81
2021/04/23 10:40:42;;;;;;;11.33;6.50;;;;;;;6.00;71.66;98954.59;114711;1200;23118;-81
2021/04/23 10:43:13;;;;;;;12.53;6.67;;;;;;;6.30;72.74;98956.97;114716;1200;23151;-81
2021/04/23 10:45:41;;;;;;;9.63;5.20;;;;;;;6.42;71.41;98960.73;114792;1202;23121;-81
2021/04/23 10:48:11;;;;;;;18.35;7.53;;;;;;;6.41;71.23;98964.47;114720;1202;23282;-81
2021/04/23 10:50:47;;;;;;;10.30;5.20;;;;;;;6.35;68.91;98981.53;114805;1200;24918;-81
2021/04/23 10:53:18;;;;;;;8.85;5.20;;;;;;;6.25;70.45;98974.66;114722;1202;25993;-81
2021/04/23 10:55:48;;;;;;;10.85;5.70;;;;;;;6.20;70.86;98962.78;114823;1203;23257;-81
2021/04/23 10:58:38;;;;;;;7.85;5.35;;;;;;;6.20;69.42;98969.02;114762;1200;23175;-81
2021/04/23 11:01:14;;;;;;;4.95;3.65;;;;;;;6.25;68.44;98957.56;114862;1199;23151;-81
2021/04/23 11:04:22;;;;;;;11.20;6.20;;;;;;;6.37;69.61;98961.34;114760;1202;23124;-81
2021/04/23 11:07:08;;;;;;;8.27;4.47;;;;;;;6.49;69.15;98961.58;115000;1203;23125;-81
2021/04/23 11:09:35;;;;;;;10.47;4.40;;;;;;;6.60;67.91;98957.42;114724;1200;23122;-81
2021/04/23 11:12:08;;;;;;;7.55;3.95;;;;;;;6.71;67.81;98955.97;114727;1200;24618;-81
2021/04/23 11:14:37;;;;;;;7.40;3.80;;;;;;;6.86;66.88;98958.49;114886;1199;23198;-81
2021/04/23 11:17:17;;;;;;;9.47;4.90;;;;;;;7.13;65.90;98956.59;115040;1200;23253;-81
2021/04/23 11:19:48;;;;;;;8.60;4.50;;;;;;;7.35;64.48;98954.48;114812;1202;26588;-80
2021/04/23 11:22:18;;;;;;;8.55;4.00;;;;;;;7.46;64.45;98955.70;114927;1202;23178;-81
2021/04/23 11:25:27;;;;;;;8.60;4.33;;;;;;;7.47;63.26;98958.20;114905;1200;23128;-81
2021/04/23 11:28:01;;;;;;;5.70;3.25;;;;;;;7.51;63.41;98970.27;114855;1200;23762;-81
2021/04/23 11:30:49;;;;;;;7.50;4.40;;;;;;;7.49;66.57;98966.95;114736;1200;23161;-81
2021/04/23 11:33:55;;;;;;;7.50;5.07;;;;;;;7.73;67.57;98961.86;114915;1200;23137;-81
2021/04/23 11:36:28;;;;;;;7.15;3.45;;;;;;;8.02;69.58;98963.22;114896;1199;23176;-81